createdAt,value
2022-10-17T00:00:45.566Z,17.50
2022-10-17T00:03:12.373Z,17.30
2022-10-17T00:05:43.945Z,15.75
2022-10-17T00:08:12.008Z,14.98
2022-10-17T00:10:39.873Z,16.27
2022-10-17T00:13:07.666Z,20.00
2022-10-17T00:15:34.744Z,17.35
2022-10-17T00:18:01.591Z,19.08
2022-10-17T00:20:30.392Z,15.73
2022-10-17T00:22:57.913Z,15.60
2022-10-17T00:25:24.702Z,17.05
2022-10-17T00:27:51.472Z,14.57
2022-10-17T00:30:18.637Z,17.15
2022-10-17T00:32:45.673Z,19.45
2022-10-17T00:35:12.381Z,16.73
2022-10-17T00:37:39.117Z,13.75
2022-10-17T00:40:07.268Z,16.90
2022-10-17T00:42:34.397Z,16.45
2022-10-17T00:45:07.247Z,18.60
2022-10-17T00:50:05.011Z,14.57
2022-10-17T00:52:32.670Z,14.27
2022-10-17T00:55:18.163Z,14.05
2022-10-17T00:57:45.959Z,14.40
2022-10-17T01:00:14.098Z,16.52
2022-10-17T01:02:41.614Z,14.68
2022-10-17T01:05:09.698Z,14.90
2022-10-17T01:07:37.516Z,17.55
2022-10-17T01:10:06.554Z,15.70
2022-10-17T01:12:52.602Z,16.30
2022-10-17T01:15:28.504Z,18.35
2022-10-17T01:18:13.978Z,15.65
2022-10-17T01:21:16.499Z,17.85
2022-10-17T01:24:28.198Z,18.02
2022-10-17T01:27:31.999Z,17.33
2022-10-17T01:30:24.022Z,16.40
2022-10-17T01:33:02.983Z,16.35
2022-10-17T01:35:36.934Z,16.10
2022-10-17T01:38:49.212Z,16.75
2022-10-17T01:41:46.993Z,17.00
2022-10-17T01:44:22.108Z,16.63
2022-10-17T01:47:01.333Z,21.15
2022-10-17T01:49:31.385Z,24.00
2022-10-17T01:52:04.007Z,22.55
2022-10-17T01:54:38.500Z,23.83
2022-10-17T01:57:11.548Z,16.48
2022-10-17T01:59:45.408Z,25.08
2022-10-17T02:02:15.533Z,23.67
2022-10-17T02:04:42.732Z,18.70
2022-10-17T02:07:12.887Z,17.88
2022-10-17T02:09:41.115Z,19.17
2022-10-17T02:12:26.469Z,21.08
2022-10-17T02:15:21.286Z,20.88
2022-10-17T02:18:19.955Z,20.92
2022-10-17T02:21:13.353Z,19.60
2022-10-17T02:23:51.999Z,26.88
2022-10-17T02:26:29.751Z,24.20
2022-10-17T02:29:02.380Z,20.95
2022-10-17T02:31:47.362Z,22.40
2022-10-17T02:34:27.888Z,23.90
2022-10-17T02:36:59.847Z,22.15
2022-10-17T02:39:29.015Z,23.08
2022-10-17T02:42:01.391Z,22.98
2022-10-17T02:44:29.163Z,28.50
2022-10-17T02:47:03.740Z,24.52
2022-10-17T02:49:36.259Z,21.85
2022-10-17T02:52:14.444Z,22.58
2022-10-17T02:55:01.124Z,23.52
2022-10-17T02:57:59.016Z,28.45
2022-10-17T03:00:27.852Z,26.58
2022-10-17T03:02:56.226Z,34.47
2022-10-17T03:05:29.375Z,26.83
2022-10-17T03:07:56.525Z,24.63
2022-10-17T03:10:24.768Z,24.00
2022-10-17T03:12:51.479Z,26.48
2022-10-17T03:15:19.370Z,24.40
2022-10-17T03:20:18.444Z,21.00
2022-10-17T03:22:45.519Z,24.95
2022-10-17T03:25:12.192Z,23.20
2022-10-17T03:27:39.311Z,22.52
2022-10-17T03:30:06.677Z,19.73
2022-10-17T03:32:34.912Z,19.83
2022-10-17T03:35:02.334Z,17.77
2022-10-17T03:37:29.541Z,16.67
2022-10-17T03:39:56.430Z,18.90
2022-10-17T03:42:23.820Z,41.95
2022-10-17T03:44:50.407Z,19.40
2022-10-17T03:47:17.224Z,17.50
2022-10-17T03:49:45.404Z,14.82
2022-10-17T03:52:13.480Z,20.02
2022-10-17T03:54:40.228Z,22.20
2022-10-17T03:57:07.069Z,20.35
2022-10-17T03:59:34.564Z,27.30
2022-10-17T04:02:06.667Z,26.80
2022-10-17T04:04:33.354Z,28.65
2022-10-17T04:07:00.077Z,31.55
2022-10-17T04:09:26.723Z,37.85
2022-10-17T04:11:59.605Z,44.55
2022-10-17T04:14:26.983Z,43.15
2022-10-17T04:16:53.906Z,41.63
2022-10-17T04:19:21.410Z,38.67
2022-10-17T04:21:49.616Z,37.38
2022-10-17T04:24:17.485Z,37.88
2022-10-17T04:26:52.326Z,36.28
2022-10-17T04:29:24.789Z,40.67
2022-10-17T04:31:56.117Z,41.90
2022-10-17T04:34:41.239Z,38.75
2022-10-17T04:37:07.975Z,39.33
2022-10-17T04:39:35.543Z,39.35
2022-10-17T04:42:03.119Z,37.92
2022-10-17T04:45:17.006Z,35.38
2022-10-17T04:47:45.359Z,30.60
2022-10-17T04:50:12.126Z,31.77
2022-10-17T04:52:40.491Z,33.90
2022-10-17T04:55:09.309Z,32.55
2022-10-17T04:57:36.324Z,33.05
2022-10-17T05:00:14.524Z,30.13
2022-10-17T05:03:00.570Z,46.67
2022-10-17T05:05:29.483Z,27.27
2022-10-17T05:07:57.290Z,35.47
2022-10-17T05:10:26.790Z,26.25
2022-10-17T05:12:54.608Z,29.98
2022-10-17T05:15:23.922Z,24.58
2022-10-17T05:17:55.992Z,30.88
2022-10-17T05:20:24.016Z,25.60
2022-10-17T05:22:50.985Z,28.98
2022-10-17T05:25:18.616Z,23.63
2022-10-17T05:27:47.126Z,42.72
2022-10-17T05:30:58.830Z,43.75
2022-10-17T05:33:25.883Z,36.63
2022-10-17T05:35:53.368Z,36.38
2022-10-17T05:38:20.438Z,35.17
2022-10-17T05:40:48.812Z,36.95
2022-10-17T05:43:15.750Z,29.85
2022-10-17T05:45:43.403Z,28.38
2022-10-17T05:48:16.854Z,32.58
2022-10-17T05:50:44.241Z,36.50
2022-10-17T05:53:16.008Z,33.75
2022-10-17T05:56:00.629Z,35.15
2022-10-17T06:01:27.043Z,41.67
2022-10-17T06:03:53.982Z,46.63
2022-10-17T06:06:20.801Z,58.92
2022-10-17T06:08:48.617Z,57.72
2022-10-17T06:11:20.862Z,51.97
2022-10-17T06:13:48.142Z,52.10
2022-10-17T06:16:22.161Z,48.55
2022-10-17T06:21:21.835Z,52.13
2022-10-17T06:23:50.944Z,44.90
2022-10-17T06:26:26.833Z,44.70
2022-10-17T06:28:54.979Z,43.47
2022-10-17T06:31:21.988Z,68.50
2022-10-17T06:33:50.629Z,58.70
2022-10-17T06:36:18.149Z,69.45
2022-10-17T06:38:46.315Z,72.63
2022-10-17T06:41:20.605Z,70.90
2022-10-17T06:43:48.454Z,98.88
2022-10-17T06:46:44.789Z,89.25
2022-10-17T06:49:18.477Z,95.30
2022-10-17T06:52:13.556Z,82.05
2022-10-17T06:54:49.526Z,85.35
2022-10-17T06:57:39.014Z,75.40
2022-10-17T07:00:26.877Z,84.93
2022-10-17T07:02:56.798Z,81.18
2022-10-17T07:05:23.664Z,64.90
2022-10-17T07:07:51.854Z,61.28
2022-10-17T07:10:19.575Z,65.88
2022-10-17T07:12:46.278Z,57.10
2022-10-17T07:15:13.271Z,55.05
2022-10-17T07:17:39.896Z,59.67
2022-10-17T07:20:07.311Z,58.65
2022-10-17T07:22:36.131Z,59.70
2022-10-17T07:25:02.930Z,52.33
2022-10-17T07:27:34.361Z,52.22
2022-10-17T07:30:01.818Z,56.17
2022-10-17T07:32:35.118Z,48.92
2022-10-17T07:35:02.673Z,50.47
2022-10-17T07:37:29.967Z,47.58
2022-10-17T07:39:56.929Z,49.33
2022-10-17T07:42:26.373Z,49.60
2022-10-17T07:44:54.639Z,46.75
2022-10-17T07:47:25.725Z,48.30
2022-10-17T07:49:59.132Z,47.03
2022-10-17T07:55:04.042Z,44.30
2022-10-17T07:57:36.592Z,42.92
2022-10-17T08:00:23.115Z,43.97
2022-10-17T08:02:56.266Z,42.75
2022-10-17T08:05:23.608Z,50.97
2022-10-17T08:08:05.768Z,48.63
2022-10-17T08:10:32.649Z,44.25
2022-10-17T08:13:02.370Z,45.85
2022-10-17T08:15:31.749Z,44.63
2022-10-17T08:17:59.661Z,44.97
2022-10-17T08:20:30.677Z,45.42
2022-10-17T08:23:04.339Z,42.97
2022-10-17T08:25:31.379Z,41.17
2022-10-17T08:28:02.020Z,41.10
2022-10-17T08:30:30.819Z,44.80
2022-10-17T08:32:57.461Z,41.92
2022-10-17T08:35:24.296Z,45.00
2022-10-17T08:37:53.547Z,44.33
2022-10-17T08:40:35.471Z,42.92
2022-10-17T08:43:41.553Z,35.85
2022-10-17T08:46:24.066Z,38.53
2022-10-17T08:49:02.282Z,41.42
2022-10-17T08:51:35.813Z,40.35
2022-10-17T08:54:43.902Z,39.03
2022-10-17T08:57:15.688Z,35.08
2022-10-17T08:59:51.523Z,35.72
2022-10-17T09:02:42.840Z,38.95
2022-10-17T09:05:51.579Z,36.40
2022-10-17T09:08:42.476Z,41.20
2022-10-17T09:11:55.308Z,38.15
2022-10-17T09:14:40.972Z,35.78
2022-10-17T09:17:07.616Z,34.38
2022-10-17T09:20:00.789Z,30.73
2022-10-17T09:22:42.202Z,32.70
2022-10-17T09:25:20.384Z,36.45
2022-10-17T09:27:57.017Z,39.20
2022-10-17T09:30:46.583Z,34.47
2022-10-17T09:33:35.684Z,36.22
2022-10-17T09:36:35.423Z,32.85
2022-10-17T09:39:06.332Z,32.85
2022-10-17T09:41:55.711Z,32.90
2022-10-17T09:44:44.304Z,34.17
2022-10-17T09:47:28.511Z,34.00
2022-10-17T09:49:55.668Z,32.70
2022-10-17T09:52:30.801Z,34.00
2022-10-17T09:55:03.681Z,32.78
2022-10-17T09:57:55.122Z,31.15
2022-10-17T10:00:30.749Z,30.83
2022-10-17T10:03:15.559Z,30.27
2022-10-17T10:08:17.056Z,30.02
2022-10-17T10:10:45.114Z,31.85
2022-10-17T10:13:11.688Z,30.55
2022-10-17T10:15:43.407Z,30.73
2022-10-17T10:18:25.307Z,29.20
2022-10-17T10:21:13.379Z,30.25
2022-10-17T10:24:03.379Z,28.38
2022-10-17T10:26:50.697Z,30.58
2022-10-17T10:29:42.094Z,28.83
2022-10-17T10:32:20.961Z,32.38
2022-10-17T10:35:05.987Z,30.77
2022-10-17T10:37:43.490Z,31.15
2022-10-17T10:40:16.349Z,28.48
2022-10-17T10:42:43.806Z,29.27
2022-10-17T10:45:48.517Z,31.75
2022-10-17T10:48:24.205Z,26.13
2022-10-17T10:50:54.122Z,30.40
2022-10-17T10:53:35.116Z,27.70
2022-10-17T10:56:13.473Z,28.60
2022-10-17T10:58:46.724Z,28.60
2022-10-17T11:01:21.970Z,28.60
2022-10-17T11:03:58.883Z,26.88
2022-10-17T11:06:34.293Z,27.88
2022-10-17T11:09:24.007Z,29.23
2022-10-17T11:12:11.674Z,26.33
2022-10-17T11:14:57.414Z,26.35
2022-10-17T11:17:52.196Z,23.70
2022-10-17T11:20:30.722Z,24.55
2022-10-17T11:23:37.370Z,22.27
2022-10-17T11:26:11.321Z,25.63
2022-10-17T11:28:38.379Z,22.42
2022-10-17T11:31:32.150Z,25.40
2022-10-17T11:34:19.420Z,22.75
2022-10-17T11:36:55.016Z,25.02
2022-10-17T11:40:09.773Z,22.73
2022-10-17T11:42:54.638Z,21.80
2022-10-17T11:45:32.206Z,22.92
2022-10-17T11:48:09.028Z,24.10
2022-10-17T11:53:37.740Z,23.30
2022-10-17T11:56:06.300Z,20.55
2022-10-17T11:58:54.698Z,24.05
2022-10-17T12:01:45.179Z,23.70
2022-10-17T12:04:36.201Z,26.70
2022-10-17T12:07:22.343Z,26.10
2022-10-17T12:10:16.280Z,25.08
2022-10-17T12:12:43.462Z,21.30
2022-10-17T12:15:13.084Z,22.27
2022-10-17T12:17:51.486Z,20.05
2022-10-17T12:20:24.310Z,21.85
2022-10-17T12:23:10.767Z,23.20
2022-10-17T12:25:51.751Z,23.80
2022-10-17T12:28:30.795Z,22.80
2022-10-17T12:31:05.359Z,24.67
2022-10-17T12:33:35.641Z,20.75
2022-10-17T12:36:22.024Z,21.92
2022-10-17T12:39:14.620Z,19.88
2022-10-17T12:41:42.620Z,22.70
2022-10-17T12:44:15.700Z,23.85
2022-10-17T12:46:56.577Z,20.10
2022-10-17T12:49:42.531Z,18.45
2022-10-17T12:52:37.098Z,20.08
2022-10-17T12:55:18.839Z,19.33
2022-10-17T12:58:14.178Z,20.58
2022-10-17T13:01:23.894Z,20.58
2022-10-17T13:03:58.939Z,19.15
2022-10-17T13:06:30.268Z,20.70
2022-10-17T13:09:05.848Z,21.48
2022-10-17T13:11:38.384Z,22.35
2022-10-17T13:14:13.327Z,20.80
2022-10-17T13:16:52.823Z,20.63
2022-10-17T13:19:23.730Z,19.92
2022-10-17T13:22:00.949Z,21.90
2022-10-17T13:24:38.886Z,19.75
2022-10-17T13:27:27.116Z,20.60
2022-10-17T13:29:56.427Z,20.30
2022-10-17T13:32:27.976Z,19.30
2022-10-17T13:35:13.949Z,19.13
2022-10-17T13:37:42.809Z,22.05
2022-10-17T13:40:44.242Z,19.73
2022-10-17T13:43:15.834Z,20.88
2022-10-17T13:45:48.431Z,20.98
2022-10-17T13:48:27.344Z,19.45
2022-10-17T13:51:00.376Z,22.20
2022-10-17T13:53:44.881Z,20.73
2022-10-17T13:56:29.552Z,19.45
2022-10-17T13:59:22.664Z,19.58
2022-10-17T14:01:56.047Z,20.65
2022-10-17T14:04:22.815Z,21.90
2022-10-17T14:06:52.314Z,22.05
2022-10-17T14:09:28.890Z,18.98
2022-10-17T14:11:58.751Z,18.63
2022-10-17T14:14:26.929Z,20.17
2022-10-17T14:16:54.130Z,18.83
2022-10-17T14:19:33.085Z,19.55
2022-10-17T14:22:25.375Z,22.73
2022-10-17T14:24:55.224Z,19.17
2022-10-17T14:27:38.142Z,20.08
2022-10-17T14:30:51.653Z,18.80
2022-10-17T14:33:27.185Z,20.60
2022-10-17T14:35:58.138Z,20.30
2022-10-17T14:38:28.936Z,18.98
2022-10-17T14:41:37.450Z,18.90
2022-10-17T14:44:03.796Z,20.08
2022-10-17T14:46:31.136Z,22.90
2022-10-17T14:49:07.301Z,20.23
2022-10-17T14:51:50.660Z,19.42
2022-10-17T14:54:38.329Z,21.77
2022-10-17T14:57:22.259Z,19.23
2022-10-17T14:59:54.217Z,20.42
2022-10-17T15:02:21.880Z,21.33
2022-10-17T15:04:48.571Z,21.20
2022-10-17T15:07:17.399Z,22.65
2022-10-17T15:09:56.443Z,20.02
2022-10-17T15:12:43.620Z,19.67
2022-10-17T15:15:21.223Z,21.02
2022-10-17T15:17:48.250Z,20.55
2022-10-17T15:20:25.114Z,22.80
2022-10-17T15:22:56.100Z,22.20
2022-10-17T15:25:30.082Z,22.83
2022-10-17T15:27:57.974Z,22.75
2022-10-17T15:30:32.764Z,20.60
2022-10-17T15:33:01.163Z,21.40
2022-10-17T15:35:29.034Z,23.38
2022-10-17T15:37:56.498Z,19.88
2022-10-17T15:40:29.283Z,21.88
2022-10-17T15:42:59.417Z,22.27
2022-10-17T15:45:26.826Z,24.15
2022-10-17T15:47:57.178Z,22.23
2022-10-17T15:50:24.019Z,24.65
2022-10-17T15:52:51.210Z,22.38
2022-10-17T15:55:18.990Z,23.85
2022-10-17T15:57:47.401Z,25.45
2022-10-17T16:00:18.436Z,27.52
2022-10-17T16:02:52.491Z,20.73
2022-10-17T16:05:30.344Z,23.48
2022-10-17T16:07:58.032Z,21.50
2022-10-17T16:10:26.044Z,23.08
2022-10-17T16:12:53.470Z,20.63
2022-10-17T16:15:25.913Z,19.75
2022-10-17T16:17:55.753Z,25.02
2022-10-17T16:20:24.285Z,21.02
2022-10-17T16:22:51.751Z,19.95
2022-10-17T16:25:27.478Z,20.02
2022-10-17T16:27:56.695Z,20.35
2022-10-17T16:30:29.812Z,21.88
2022-10-17T16:33:00.810Z,19.63
2022-10-17T16:35:33.228Z,23.10
2022-10-17T16:38:04.058Z,22.80
2022-10-17T16:40:30.768Z,22.00
2022-10-17T16:42:57.567Z,25.38
2022-10-17T16:45:27.985Z,20.77
2022-10-17T16:47:55.364Z,22.15
2022-10-17T16:50:22.796Z,23.50
2022-10-17T16:52:49.467Z,25.35
2022-10-17T16:55:18.931Z,19.65
2022-10-17T16:57:45.714Z,23.83
2022-10-17T17:00:12.812Z,22.05
2022-10-17T17:02:41.664Z,22.90
2022-10-17T17:05:09.874Z,25.83
2022-10-17T17:07:37.288Z,25.48
2022-10-17T17:10:04.825Z,23.55
2022-10-17T17:12:35.662Z,22.00
2022-10-17T17:15:03.641Z,23.95
2022-10-17T17:17:48.440Z,20.05
2022-10-17T17:20:17.003Z,21.13
2022-10-17T17:22:43.766Z,20.02
2022-10-17T17:25:10.477Z,20.92
2022-10-17T17:27:37.206Z,23.35
2022-10-17T17:30:04.780Z,23.40
2022-10-17T17:35:28.150Z,24.75
2022-10-17T17:37:58.362Z,20.83
2022-10-17T17:40:25.238Z,20.75
2022-10-17T17:42:57.335Z,20.27
2022-10-17T17:45:27.843Z,21.85
2022-10-17T17:47:56.018Z,21.63
2022-10-17T17:50:30.130Z,17.88
2022-10-17T17:53:03.650Z,19.67
2022-10-17T17:55:30.409Z,20.98
2022-10-17T17:57:57.267Z,17.58
2022-10-17T18:00:24.302Z,21.08
2022-10-17T18:02:51.087Z,26.55
2022-10-17T18:05:17.867Z,23.45
2022-10-17T18:07:44.632Z,24.95
2022-10-17T18:12:42.307Z,33.33
2022-10-17T18:15:09.231Z,30.80
2022-10-17T18:17:36.033Z,33.85
2022-10-17T18:20:03.594Z,38.83
2022-10-17T18:22:31.599Z,34.30
2022-10-17T18:24:58.763Z,36.60
2022-10-17T18:27:25.394Z,34.08
2022-10-17T18:29:52.097Z,33.63
2022-10-17T18:32:18.925Z,34.17
2022-10-17T18:34:45.652Z,34.58
2022-10-17T18:37:12.522Z,35.65
2022-10-17T18:39:39.241Z,36.63
2022-10-17T18:42:05.943Z,33.38
2022-10-17T18:44:32.692Z,31.75
2022-10-17T18:47:03.095Z,32.97
2022-10-17T18:49:31.474Z,33.35
2022-10-17T18:51:59.770Z,30.75
2022-10-17T18:54:35.927Z,33.80
2022-10-17T18:57:02.609Z,30.55
2022-10-17T18:59:34.088Z,33.53
2022-10-17T19:02:00.840Z,37.30
2022-10-17T19:04:27.928Z,39.45
2022-10-17T19:06:54.625Z,40.53
2022-10-17T19:09:21.629Z,38.95
2022-10-17T19:11:48.883Z,37.13
2022-10-17T19:14:15.812Z,42.25
2022-10-17T19:16:46.416Z,36.00
2022-10-17T19:19:16.396Z,37.78
2022-10-17T19:21:44.263Z,35.92
2022-10-17T19:24:16.960Z,37.63
2022-10-17T19:26:45.578Z,38.17
2022-10-17T19:29:17.088Z,34.20
2022-10-17T19:31:45.098Z,38.20
2022-10-17T19:34:12.842Z,35.35
2022-10-17T19:36:40.273Z,33.25
2022-10-17T19:39:19.620Z,31.65
2022-10-17T19:41:48.054Z,33.95
2022-10-17T19:44:14.977Z,39.10
2022-10-17T19:46:44.378Z,39.90
2022-10-17T19:49:11.725Z,38.25
2022-10-17T19:51:38.396Z,39.78
2022-10-17T19:54:05.090Z,35.03
2022-10-17T19:56:33.443Z,39.45
2022-10-17T19:59:00.175Z,36.58
2022-10-17T20:01:32.609Z,37.55
2022-10-17T20:03:59.676Z,37.83
2022-10-17T20:06:26.711Z,37.50
2022-10-17T20:08:53.955Z,37.97
2022-10-17T20:11:23.461Z,36.83
2022-10-17T20:13:50.687Z,33.47
2022-10-17T20:16:23.384Z,31.38
2022-10-17T20:18:51.558Z,33.78
2022-10-17T20:21:24.133Z,33.88
2022-10-17T20:23:51.082Z,35.25
2022-10-17T20:26:37.109Z,42.97
2022-10-17T20:29:11.883Z,56.10
2022-10-17T20:31:40.055Z,67.25
2022-10-17T20:34:06.831Z,62.20
2022-10-17T20:36:37.360Z,62.25
2022-10-17T20:39:05.398Z,41.60
2022-10-17T20:41:32.497Z,40.60
2022-10-17T20:43:59.145Z,42.60
2022-10-17T20:49:18.429Z,45.38
2022-10-17T20:51:45.537Z,43.22
2022-10-17T20:54:12.864Z,41.75
2022-10-17T20:56:39.840Z,38.63
2022-10-17T20:59:12.713Z,45.97
2022-10-17T21:01:39.529Z,36.45
2022-10-17T21:04:33.405Z,36.47
2022-10-17T21:06:53.518Z,34.13
2022-10-17T21:09:20.986Z,37.80
2022-10-17T21:11:51.563Z,38.50
2022-10-17T21:14:18.739Z,37.63
2022-10-17T21:16:48.440Z,33.65
2022-10-17T21:19:16.201Z,36.45
2022-10-17T21:21:45.739Z,36.33
2022-10-17T21:24:16.803Z,32.25
2022-10-17T21:26:45.072Z,35.80
2022-10-17T21:29:14.932Z,37.88
2022-10-17T21:31:44.046Z,36.20
2022-10-17T21:34:13.135Z,35.67
2022-10-17T21:36:39.870Z,37.85
2022-10-17T21:41:34.706Z,41.95
2022-10-17T21:44:06.673Z,42.47
2022-10-17T21:46:34.116Z,37.90
2022-10-17T21:49:01.325Z,37.85
2022-10-17T21:51:28.454Z,35.25
2022-10-17T21:53:57.264Z,39.63
2022-10-17T21:56:28.623Z,40.75
2022-10-17T21:58:55.646Z,41.05
2022-10-17T22:01:28.213Z,38.55
2022-10-17T22:03:57.581Z,40.67
2022-10-17T22:06:42.542Z,35.10
2022-10-17T22:09:21.263Z,36.72
2022-10-17T22:11:50.451Z,36.88
2022-10-17T22:14:19.520Z,35.97
2022-10-17T22:16:47.203Z,39.05
2022-10-17T22:19:17.846Z,40.28
2022-10-17T22:21:44.803Z,36.67
2022-10-17T22:24:14.546Z,39.50
2022-10-17T22:26:42.026Z,38.22
2022-10-17T22:29:09.585Z,43.45
2022-10-17T22:31:37.371Z,32.75
2022-10-17T22:34:05.609Z,42.38
2022-10-17T22:36:33.612Z,46.80
2022-10-17T22:39:00.276Z,38.70
2022-10-17T22:41:27.263Z,42.15
2022-10-17T22:43:53.933Z,38.70
2022-10-17T22:46:20.611Z,30.80
2022-10-17T22:48:47.247Z,41.40
2022-10-17T22:51:14.269Z,38.35
2022-10-17T22:53:41.123Z,28.60
2022-10-17T22:56:15.066Z,28.67
2022-10-17T22:58:42.169Z,32.00
2022-10-17T23:01:12.975Z,29.92
2022-10-17T23:03:39.786Z,27.33
2022-10-17T23:06:06.535Z,40.33
2022-10-17T23:08:33.291Z,32.30
2022-10-17T23:10:59.999Z,35.28
2022-10-17T23:13:26.753Z,29.10
2022-10-17T23:15:55.411Z,28.20
2022-10-17T23:18:23.190Z,30.88
2022-10-17T23:20:50.672Z,34.08
2022-10-17T23:23:17.773Z,32.70
2022-10-17T23:25:44.575Z,32.20
2022-10-17T23:28:11.637Z,34.55
2022-10-17T23:30:39.103Z,34.95
2022-10-17T23:33:06.482Z,33.22
2022-10-17T23:35:33.601Z,36.75
2022-10-17T23:38:00.224Z,40.28
2022-10-17T23:40:27.006Z,37.08
2022-10-17T23:42:53.773Z,40.50
2022-10-17T23:45:20.938Z,43.30
2022-10-17T23:47:47.527Z,50.35
2022-10-17T23:52:40.724Z,33.47
2022-10-17T23:55:08.277Z,36.83
2022-10-17T23:57:35.019Z,37.30
